sensor_id;sensor_type;location;lat;lon;timestamp;pressure;altitude;pressure_sealevel;temperature;humidity
69058;BME280;56128;37.534;-122.308;2023-11-18T00:01:33;100825.28;;;16.45;100.00
69058;BME280;56128;37.534;-122.308;2023-11-18T00:03:59;100828.44;;;16.41;100.00
69058;BME280;56128;37.534;-122.308;2023-11-18T00:06:26;100824.19;;;16.38;100.00
69058;BME280;56128;37.534;-122.308;2023-11-18T00:08:52;100828.19;;;16.34;100.00
69058;BME280;56128;37.534;-122.308;2023-11-18T00:11:18;100831.34;;;16.29;100.00
69058;BME280;56128;37.534;-122.308;2023-11-18T00:13:44;100835.03;;;16.28;100.00
69058;BME280;56128;37.534;-122.308;2023-11-18T00:16:11;100838.91;;;16.26;100.00
69058;BME280;56128;37.534;-122.308;2023-11-18T00:18:42;100834.50;;;16.25;100.00
69058;BME280;56128;37.534;-122.308;2023-11-18T00:21:08;100825.72;;;16.22;100.00
69058;BME280;56128;37.534;-122.308;2023-11-18T00:23:37;100833.94;;;16.21;100.00
69058;BME280;56128;37.534;-122.308;2023-11-18T00:26:03;100835.97;;;16.19;100.00
69058;BME280;56128;37.534;-122.308;2023-11-18T00:28:32;100843.38;;;16.17;100.00
69058;BME280;56128;37.534;-122.308;2023-11-18T00:30:58;100841.13;;;16.12;100.00
69058;BME280;56128;37.534;-122.308;2023-11-18T00:33:24;100834.47;;;16.06;100.00
69058;BME280;56128;37.534;-122.308;2023-11-18T00:35:50;100835.47;;;16.05;100.00
69058;BME280;56128;37.534;-122.308;2023-11-18T00:38:16;100840.31;;;16.02;100.00
69058;BME280;56128;37.534;-122.308;2023-11-18T00:40:43;100833.22;;;16.01;100.00
69058;BME280;56128;37.534;-122.308;2023-11-18T00:43:09;100835.53;;;15.96;100.00
69058;BME280;56128;37.534;-122.308;2023-11-18T00:45:35;100839.97;;;15.87;100.00
69058;BME280;56128;37.534;-122.308;2023-11-18T00:48:01;100835.88;;;15.83;100.00
69058;BME280;56128;37.534;-122.308;2023-11-18T00:50:30;100831.50;;;15.82;100.00
69058;BME280;56128;37.534;-122.308;2023-11-18T00:52:57;100834.31;;;15.80;100.00
69058;BME280;56128;37.534;-122.308;2023-11-18T00:55:23;100834.47;;;15.79;100.00
69058;BME280;56128;37.534;-122.308;2023-11-18T00:57:49;100843.16;;;15.72;100.00
69058;BME280;56128;37.534;-122.308;2023-11-18T01:00:15;100862.88;;;15.73;100.00
69058;BME280;56128;37.534;-122.308;2023-11-18T01:02:53;100878.81;;;15.66;100.00
69058;BME280;56128;37.534;-122.308;2023-11-18T01:05:23;100885.63;;;15.61;100.00
69058;BME280;56128;37.534;-122.308;2023-11-18T01:07:49;100883.38;;;15.56;100.00
69058;BME280;56128;37.534;-122.308;2023-11-18T01:10:15;100881.97;;;15.52;100.00
69058;BME280;56128;37.534;-122.308;2023-11-18T01:12:42;100879.44;;;15.40;100.00
69058;BME280;56128;37.534;-122.308;2023-11-18T01:15:11;100874.63;;;15.44;100.00
69058;BME280;56128;37.534;-122.308;2023-11-18T01:17:38;100884.69;;;15.42;100.00
69058;BME280;56128;37.534;-122.308;2023-11-18T01:20:05;100866.41;;;15.36;100.00
69058;BME280;56128;37.534;-122.308;2023-11-18T01:22:39;100878.31;;;15.33;100.00
69058;BME280;56128;37.534;-122.308;2023-11-18T01:25:07;100865.16;;;15.30;100.00
69058;BME280;56128;37.534;-122.308;2023-11-18T01:27:34;100865.72;;;15.24;100.00
69058;BME280;56128;37.534;-122.308;2023-11-18T01:30:01;100863.34;;;15.21;100.00
69058;BME280;56128;37.534;-122.308;2023-11-18T01:32:30;100861.91;;;15.17;100.00
69058;BME280;56128;37.534;-122.308;2023-11-18T01:34:56;100862.91;;;15.16;100.00
69058;BME280;56128;37.534;-122.308;2023-11-18T01:37:22;100860.50;;;15.13;100.00
69058;BME280;56128;37.534;-122.308;2023-11-18T01:39:50;100870.44;;;15.12;100.00
69058;BME280;56128;37.534;-122.308;2023-11-18T01:42:16;100874.81;;;15.13;100.00
69058;BME280;56128;37.534;-122.308;2023-11-18T01:44:42;100884.75;;;15.13;100.00
69058;BME280;56128;37.534;-122.308;2023-11-18T01:47:09;100884.75;;;15.13;100.00
69058;BME280;56128;37.534;-122.308;2023-11-18T01:49:38;100889.72;;;15.07;100.00
69058;BME280;56128;37.534;-122.308;2023-11-18T01:52:07;100882.06;;;15.03;100.00
69058;BME280;56128;37.534;-122.308;2023-11-18T01:54:36;100853.56;;;15.00;100.00
69058;BME280;56128;37.534;-122.308;2023-11-18T01:57:06;100832.59;;;14.94;100.00
69058;BME280;56128;37.534;-122.308;2023-11-18T01:59:35;100860.97;;;14.88;100.00
69058;BME280;56128;37.534;-122.308;2023-11-18T02:02:04;100880.50;;;14.90;100.00
69058;BME280;56128;37.534;-122.308;2023-11-18T02:04:30;100886.06;;;14.89;100.00
69058;BME280;56128;37.534;-122.308;2023-11-18T02:06:57;100884.19;;;14.89;100.00
69058;BME280;56128;37.534;-122.308;2023-11-18T02:09:24;100888.44;;;14.92;100.00
69058;BME280;56128;37.534;-122.308;2023-11-18T02:14:28;100874.44;;;14.79;100.00
69058;BME280;56128;37.534;-122.308;2023-11-18T02:17:02;100882.66;;;14.77;100.00
69058;BME280;56128;37.534;-122.308;2023-11-18T02:19:30;100868.19;;;14.78;100.00
69058;BME280;56128;37.534;-122.308;2023-11-18T02:22:04;100867.19;;;14.79;100.00
69058;BME280;56128;37.534;-122.308;2023-11-18T02:24:34;100866.78;;;14.74;100.00
69058;BME280;56128;37.534;-122.308;2023-11-18T02:27:06;100868.91;;;14.70;100.00
69058;BME280;56128;37.534;-122.308;2023-11-18T02:29:39;100869.75;;;14.71;100.00
69058;BME280;56128;37.534;-122.308;2023-11-18T02:35:10;100872.72;;;14.68;100.00
69058;BME280;56128;37.534;-122.308;2023-11-18T02:37:44;100871.16;;;14.65;100.00
69058;BME280;56128;37.534;-122.308;2023-11-18T02:40:20;100875.25;;;14.59;100.00
69058;BME280;56128;37.534;-122.308;2023-11-18T02:42:53;100874.94;;;14.53;100.00
69058;BME280;56128;37.534;-122.308;2023-11-18T02:45:22;100878.91;;;14.49;100.00
69058;BME280;56128;37.534;-122.308;2023-11-18T02:47:49;100877.50;;;14.44;100.00
69058;BME280;56128;37.534;-122.308;2023-11-18T02:50:15;100876.94;;;14.41;100.00
69058;BME280;56128;37.534;-122.308;2023-11-18T02:52:46;100863.28;;;14.23;100.00
69058;BME280;56128;37.534;-122.308;2023-11-18T02:55:12;100866.97;;;14.22;100.00
69058;BME280;56128;37.534;-122.308;2023-11-18T02:57:39;100864.69;;;14.17;100.00
69058;BME280;56128;37.534;-122.308;2023-11-18T03:00:07;100866.66;;;14.15;100.00
69058;BME280;56128;37.534;-122.308;2023-11-18T03:02:45;100866.63;;;14.05;100.00
69058;BME280;56128;37.534;-122.308;2023-11-18T03:05:16;100872.56;;;13.99;100.00
69058;BME280;56128;37.534;-122.308;2023-11-18T03:07:49;100879.50;;;13.92;100.00
69058;BME280;56128;37.534;-122.308;2023-11-18T03:10:17;100877.06;;;13.89;100.00
69058;BME280;56128;37.534;-122.308;2023-11-18T03:12:53;100875.06;;;13.81;100.00
69058;BME280;56128;37.534;-122.308;2023-11-18T03:15:21;100877.88;;;13.79;100.00
69058;BME280;56128;37.534;-122.308;2023-11-18T03:17:49;100880.28;;;13.73;100.00
69058;BME280;56128;37.534;-122.308;2023-11-18T03:20:17;100876.72;;;13.72;100.00
69058;BME280;56128;37.534;-122.308;2023-11-18T03:22:45;100879.25;;;13.64;100.00
69058;BME280;56128;37.534;-122.308;2023-11-18T03:25:13;100880.47;;;13.60;100.00
69058;BME280;56128;37.534;-122.308;2023-11-18T03:27:40;100879.66;;;13.59;100.00
69058;BME280;56128;37.534;-122.308;2023-11-18T03:30:07;100874.66;;;13.55;100.00
69058;BME280;56128;37.534;-122.308;2023-11-18T03:32:38;100875.06;;;13.50;100.00
69058;BME280;56128;37.534;-122.308;2023-11-18T03:35:07;100868.38;;;13.44;100.00
69058;BME280;56128;37.534;-122.308;2023-11-18T03:37:37;100869.66;;;13.40;100.00
69058;BME280;56128;37.534;-122.308;2023-11-18T03:40:14;100865.25;;;13.39;100.00
69058;BME280;56128;37.534;-122.308;2023-11-18T03:42:43;100875.53;;;13.34;100.00
69058;BME280;56128;37.534;-122.308;2023-11-18T03:45:12;100887.25;;;13.33;100.00
69058;BME280;56128;37.534;-122.308;2023-11-18T03:47:41;100882.13;;;13.30;100.00
69058;BME280;56128;37.534;-122.308;2023-11-18T03:50:07;100873.94;;;13.31;100.00
69058;BME280;56128;37.534;-122.308;2023-11-18T03:52:39;100866.88;;;13.30;100.00
69058;BME280;56128;37.534;-122.308;2023-11-18T03:55:06;100866.13;;;13.28;100.00
69058;BME280;56128;37.534;-122.308;2023-11-18T04:00:37;100893.16;;;13.27;100.00
69058;BME280;56128;37.534;-122.308;2023-11-18T04:03:03;100893.97;;;13.27;100.00
69058;BME280;56128;37.534;-122.308;2023-11-18T04:05:33;100901.34;;;13.25;100.00
69058;BME280;56128;37.534;-122.308;2023-11-18T04:08:00;100910.25;;;13.26;100.00
69058;BME280;56128;37.534;-122.308;2023-11-18T04:10:27;100918.06;;;13.29;100.00
69058;BME280;56128;37.534;-122.308;2023-11-18T04:12:53;100913.16;;;13.34;100.00
69058;BME280;56128;37.534;-122.308;2023-11-18T04:15:19;100905.72;;;13.38;100.00
69058;BME280;56128;37.534;-122.308;2023-11-18T04:17:45;100913.78;;;13.38;100.00
69058;BME280;56128;37.534;-122.308;2023-11-18T04:20:11;100918.03;;;13.40;100.00
69058;BME280;56128;37.534;-122.308;2023-11-18T04:22:39;100908.25;;;13.39;100.00
69058;BME280;56128;37.534;-122.308;2023-11-18T04:25:09;100909.09;;;13.40;100.00
69058;BME280;56128;37.534;-122.308;2023-11-18T04:27:37;100910.94;;;13.39;100.00
69058;BME280;56128;37.534;-122.308;2023-11-18T04:30:04;100899.47;;;13.37;100.00
69058;BME280;56128;37.534;-122.308;2023-11-18T04:32:30;100900.53;;;13.35;100.00
69058;BME280;56128;37.534;-122.308;2023-11-18T04:35:00;100899.94;;;13.31;100.00
69058;BME280;56128;37.534;-122.308;2023-11-18T04:37:35;100898.00;;;13.33;100.00
69058;BME280;56128;37.534;-122.308;2023-11-18T04:40:06;100901.53;;;13.34;100.00
69058;BME280;56128;37.534;-122.308;2023-11-18T04:42:35;100892.63;;;13.33;100.00
69058;BME280;56128;37.534;-122.308;2023-11-18T04:45:03;100891.06;;;13.30;100.00
69058;BME280;56128;37.534;-122.308;2023-11-18T04:47:29;100890.19;;;13.30;100.00
69058;BME280;56128;37.534;-122.308;2023-11-18T04:49:55;100888.50;;;13.29;100.00
69058;BME280;56128;37.534;-122.308;2023-11-18T04:52:21;100882.25;;;13.28;100.00
69058;BME280;56128;37.534;-122.308;2023-11-18T04:54:48;100873.59;;;13.25;100.00
69058;BME280;56128;37.534;-122.308;2023-11-18T04:57:14;100878.97;;;13.25;100.00
69058;BME280;56128;37.534;-122.308;2023-11-18T04:59:42;100883.66;;;13.23;100.00
69058;BME280;56128;37.534;-122.308;2023-11-18T05:02:09;100883.66;;;13.23;100.00
69058;BME280;56128;37.534;-122.308;2023-11-18T05:04:35;100880.97;;;13.23;100.00
69058;BME280;56128;37.534;-122.308;2023-11-18T05:07:01;100883.75;;;13.21;100.00
69058;BME280;56128;37.534;-122.308;2023-11-18T05:09:28;100886.59;;;13.20;100.00
69058;BME280;56128;37.534;-122.308;2023-11-18T05:11:54;100885.47;;;13.22;100.00
69058;BME280;56128;37.534;-122.308;2023-11-18T05:14:20;100896.34;;;13.21;100.00
69058;BME280;56128;37.534;-122.308;2023-11-18T05:16:47;100898.31;;;13.19;100.00
69058;BME280;56128;37.534;-122.308;2023-11-18T05:19:13;100901.00;;;13.19;100.00
69058;BME280;56128;37.534;-122.308;2023-11-18T05:21:40;100902.97;;;13.17;100.00
69058;BME280;56128;37.534;-122.308;2023-11-18T05:24:06;100906.91;;;13.12;100.00
69058;BME280;56128;37.534;-122.308;2023-11-18T05:26:32;100897.84;;;13.13;100.00
69058;BME280;56128;37.534;-122.308;2023-11-18T05:29:00;100899.69;;;13.13;100.00
69058;BME280;56128;37.534;-122.308;2023-11-18T05:31:27;100890.78;;;13.12;100.00
69058;BME280;56128;37.534;-122.308;2023-11-18T05:33:54;100904.22;;;13.12;100.00
69058;BME280;56128;37.534;-122.308;2023-11-18T05:36:21;100900.53;;;13.13;100.00
69058;BME280;56128;37.534;-122.308;2023-11-18T05:38:56;100899.69;;;13.13;100.00
69058;BME280;56128;37.534;-122.308;2023-11-18T05:41:22;100904.09;;;13.14;100.00
69058;BME280;56128;37.534;-122.308;2023-11-18T05:43:58;100904.94;;;13.14;100.00
69058;BME280;56128;37.534;-122.308;2023-11-18T05:46:25;100907.75;;;13.13;100.00
69058;BME280;56128;37.534;-122.308;2023-11-18T05:48:53;100916.81;;;13.12;100.00
69058;BME280;56128;37.534;-122.308;2023-11-18T05:51:28;100918.38;;;13.14;100.00
69058;BME280;56128;37.534;-122.308;2023-11-18T05:53:55;100916.81;;;13.12;100.00
69058;BME280;56128;37.534;-122.308;2023-11-18T05:56:21;100923.88;;;13.13;100.00
69058;BME280;56128;37.534;-122.308;2023-11-18T05:58:51;100928.53;;;13.11;100.00
69058;BME280;56128;37.534;-122.308;2023-11-18T06:01:20;100925.84;;;13.11;100.00
69058;BME280;56128;37.534;-122.308;2023-11-18T06:03:46;100920.59;;;13.09;100.00
69058;BME280;56128;37.534;-122.308;2023-11-18T06:06:15;100922.78;;;13.15;100.00
69058;BME280;56128;37.534;-122.308;2023-11-18T06:08:42;100918.06;;;13.29;100.00
69058;BME280;56128;37.534;-122.308;2023-11-18T06:11:12;100912.94;;;13.26;100.00
69058;BME280;56128;37.534;-122.308;2023-11-18T06:13:46;100915.38;;;13.29;100.00
69058;BME280;56128;37.534;-122.308;2023-11-18T06:16:13;100920.03;;;13.27;100.00
69058;BME280;56128;37.534;-122.308;2023-11-18T06:18:41;100913.66;;;13.28;100.00
69058;BME280;56128;37.534;-122.308;2023-11-18T06:21:17;100920.63;;;13.30;100.00
69058;BME280;56128;37.534;-122.308;2023-11-18T06:23:45;100915.09;;;13.32;100.00
69058;BME280;56128;37.534;-122.308;2023-11-18T06:26:13;100919.22;;;13.36;100.00
69058;BME280;56128;37.534;-122.308;2023-11-18T06:28:44;100917.28;;;13.38;100.00
69058;BME280;56128;37.534;-122.308;2023-11-18T06:31:11;100913.63;;;13.39;100.00
69058;BME280;56128;37.534;-122.308;2023-11-18T06:33:38;100918.13;;;13.39;100.00
69058;BME280;56128;37.534;-122.308;2023-11-18T06:36:18;100921.56;;;13.41;100.00
69058;BME280;56128;37.534;-122.308;2023-11-18T06:38:47;100918.72;;;13.42;100.00
69058;BME280;56128;37.534;-122.308;2023-11-18T06:41:16;100909.16;;;13.50;100.00
69058;BME280;56128;37.534;-122.308;2023-11-18T06:43:46;100905.50;;;13.51;100.00
69058;BME280;56128;37.534;-122.308;2023-11-18T06:46:32;100905.13;;;13.65;100.00
69058;BME280;56128;37.534;-122.308;2023-11-18T06:49:05;100901.28;;;13.58;100.00
69058;BME280;56128;37.534;-122.308;2023-11-18T06:51:41;100905.34;;;13.52;100.00
69058;BME280;56128;37.534;-122.308;2023-11-18T06:54:07;100907.44;;;13.48;100.00
69058;BME280;56128;37.534;-122.308;2023-11-18T06:56:43;100903.78;;;13.50;100.00
69058;BME280;56128;37.534;-122.308;2023-11-18T06:59:10;100903.78;;;13.50;100.00
69058;BME280;56128;37.534;-122.308;2023-11-18T07:01:39;100898.69;;;13.46;100.00
69058;BME280;56128;37.534;-122.308;2023-11-18T07:04:09;100899.06;;;13.42;100.00
69058;BME280;56128;37.534;-122.308;2023-11-18T07:06:36;100899.31;;;13.39;100.00
69058;BME280;56128;37.534;-122.308;2023-11-18T07:09:07;100898.72;;;13.35;100.00
69058;BME280;56128;37.534;-122.308;2023-11-18T07:11:43;100886.97;;;13.36;100.00
69058;BME280;56128;37.534;-122.308;2023-11-18T07:14:11;100878.53;;;13.41;100.00
69058;BME280;56128;37.534;-122.308;2023-11-18T07:16:38;100892.13;;;13.39;100.00
69058;BME280;56128;37.534;-122.308;2023-11-18T07:19:05;100900.69;;;13.33;100.00
69058;BME280;56128;37.534;-122.308;2023-11-18T07:21:31;100904.34;;;13.32;100.00
69058;BME280;56128;37.534;-122.308;2023-11-18T07:23:59;100908.47;;;13.36;100.00
69058;BME280;56128;37.534;-122.308;2023-11-18T07:26:25;100912.66;;;13.40;100.00
69058;BME280;56128;37.534;-122.308;2023-11-18T07:28:51;100906.47;;;13.50;100.00
69058;BME280;56128;37.534;-122.308;2023-11-18T07:31:18;100902.59;;;13.42;100.00
69058;BME280;56128;37.534;-122.308;2023-11-18T07:33:45;100908.25;;;13.39;100.00
69058;BME280;56128;37.534;-122.308;2023-11-18T07:36:18;100910.47;;;13.34;100.00
69058;BME280;56128;37.534;-122.308;2023-11-18T07:38:47;100900.81;;;13.31;100.00
69058;BME280;56128;37.534;-122.308;2023-11-18T07:41:13;100908.16;;;13.29;100.00
69058;BME280;56128;37.534;-122.308;2023-11-18T07:43:50;100910.56;;;13.32;100.00
69058;BME280;56128;37.534;-122.308;2023-11-18T07:46:18;100910.56;;;13.32;100.00
69058;BME280;56128;37.534;-122.308;2023-11-18T07:48:44;100912.16;;;13.35;100.00
69058;BME280;56128;37.534;-122.308;2023-11-18T07:51:11;100912.75;;;13.39;100.00
69058;BME280;56128;37.534;-122.308;2023-11-18T07:53:38;100910.22;;;13.37;100.00
69058;BME280;56128;37.534;-122.308;2023-11-18T07:56:04;100903.59;;;13.41;100.00
69058;BME280;56128;37.534;-122.308;2023-11-18T07:58:33;100902.50;;;13.44;100.00
69058;BME280;56128;37.534;-122.308;2023-11-18T08:01:04;100904.59;;;13.40;100.00
69058;BME280;56128;37.534;-122.308;2023-11-18T08:03:33;100908.25;;;13.39;100.00
69058;BME280;56128;37.534;-122.308;2023-11-18T08:06:00;100907.19;;;13.52;100.00
69058;BME280;56128;37.534;-122.308;2023-11-18T08:08:28;100897.59;;;13.59;100.00
69058;BME280;56128;37.534;-122.308;2023-11-18T08:10:54;100891.53;;;13.57;100.00
69058;BME280;56128;37.534;-122.308;2023-11-18T08:13:21;100895.91;;;13.58;100.00
69058;BME280;56128;37.534;-122.308;2023-11-18T08:15:48;100898.59;;;13.58;100.00
69058;BME280;56128;37.534;-122.308;2023-11-18T08:18:14;100889.41;;;13.60;100.00
69058;BME280;56128;37.534;-122.308;2023-11-18T08:20:40;100895.38;;;13.64;100.00
69058;BME280;56128;37.534;-122.308;2023-11-18T08:23:07;100897.94;;;13.66;100.00
69058;BME280;56128;37.534;-122.308;2023-11-18T08:25:34;100890.25;;;13.61;100.00
69058;BME280;56128;37.534;-122.308;2023-11-18T08:28:02;100889.81;;;13.56;100.00
69058;BME280;56128;37.534;-122.308;2023-11-18T08:30:29;100894.59;;;13.52;100.00
69058;BME280;56128;37.534;-122.308;2023-11-18T08:32:55;100895.56;;;13.51;100.00
69058;BME280;56128;37.534;-122.308;2023-11-18T08:35:23;100899.00;;;13.53;100.00
69058;BME280;56128;37.534;-122.308;2023-11-18T08:37:49;100884.81;;;13.51;100.00
69058;BME280;56128;37.534;-122.308;2023-11-18T08:40:15;100888.38;;;13.52;100.00
69058;BME280;56128;37.534;-122.308;2023-11-18T08:42:49;100876.06;;;13.49;100.00
69058;BME280;56128;37.534;-122.308;2023-11-18T08:45:19;100877.75;;;13.50;100.00
69058;BME280;56128;37.534;-122.308;2023-11-18T08:47:48;100857.78;;;13.53;100.00
69058;BME280;56128;37.534;-122.308;2023-11-18T08:50:15;100863.75;;;13.46;100.00
69058;BME280;56128;37.534;-122.308;2023-11-18T08:52:43;100871.81;;;13.46;100.00
69058;BME280;56128;37.534;-122.308;2023-11-18T08:55:15;100883.78;;;13.42;100.00
69058;BME280;56128;37.534;-122.308;2023-11-18T08:58:09;100883.09;;;13.40;100.00
69058;BME280;56128;37.534;-122.308;2023-11-18T09:00:48;100881.59;;;13.36;100.00
69058;BME280;56128;37.534;-122.308;2023-11-18T09:05:55;100883.00;;;13.30;100.00
69058;BME280;56128;37.534;-122.308;2023-11-18T09:08:35;100882.41;;;13.27;100.00
69058;BME280;56128;37.534;-122.308;2023-11-18T09:11:06;100878.00;;;13.26;100.00
69058;BME280;56128;37.534;-122.308;2023-11-18T09:13:33;100874.88;;;13.21;100.00
69058;BME280;56128;37.534;-122.308;2023-11-18T09:16:02;100872.91;;;13.23;100.00
69058;BME280;56128;37.534;-122.308;2023-11-18T09:18:30;100865.97;;;13.20;100.00
69058;BME280;56128;37.534;-122.308;2023-11-18T09:20:59;100862.53;;;13.18;100.00
69058;BME280;56128;37.534;-122.308;2023-11-18T09:23:27;100858.28;;;13.15;100.00
69058;BME280;56128;37.534;-122.308;2023-11-18T09:25:54;100861.34;;;13.11;100.00
69058;BME280;56128;37.534;-122.308;2023-11-18T09:28:21;100867.84;;;13.08;100.00
69058;BME280;56128;37.534;-122.308;2023-11-18T09:30:50;100872.38;;;13.08;100.00
69058;BME280;56128;37.534;-122.308;2023-11-18T09:33:22;100859.78;;;13.08;100.00
69058;BME280;56128;37.534;-122.308;2023-11-18T09:35:57;100854.41;;;13.08;100.00
69058;BME280;56128;37.534;-122.308;2023-11-18T09:38:31;100854.56;;;13.07;100.00
69058;BME280;56128;37.534;-122.308;2023-11-18T09:40:58;100857.38;;;13.05;100.00
69058;BME280;56128;37.534;-122.308;2023-11-18T09:43:33;100865.69;;;13.02;100.00
69058;BME280;56128;37.534;-122.308;2023-11-18T09:46:09;100876.44;;;13.02;100.00
69058;BME280;56128;37.534;-122.308;2023-11-18T09:48:42;100864.97;;;13.00;100.00
69058;BME280;56128;37.534;-122.308;2023-11-18T09:51:15;100865.81;;;13.01;100.00
69058;BME280;56128;37.534;-122.308;2023-11-18T09:53:49;100862.28;;;13.00;100.00
69058;BME280;56128;37.534;-122.308;2023-11-18T10:01:56;100838.81;;;13.02;100.00
69058;BME280;56128;37.534;-122.308;2023-11-18T10:04:24;100830.91;;;13.01;100.00
69058;BME280;56128;37.534;-122.308;2023-11-18T10:06:56;100838.50;;;12.95;100.00
69058;BME280;56128;37.534;-122.308;2023-11-18T10:09:26;100852.06;;;12.94;100.00
69058;BME280;56128;37.534;-122.308;2023-11-18T10:12:04;100851.34;;;12.92;100.00
69058;BME280;56128;37.534;-122.308;2023-11-18T10:14:34;100855.00;;;12.91;100.00
69058;BME280;56128;37.534;-122.308;2023-11-18T10:17:07;100843.28;;;12.92;100.00
69058;BME280;56128;37.534;-122.308;2023-11-18T10:19:55;100853.06;;;12.93;100.00
69058;BME280;56128;37.534;-122.308;2023-11-18T10:22:26;100848.38;;;12.95;100.00
69058;BME280;56128;37.534;-122.308;2023-11-18T10:24:53;100842.16;;;12.94;100.00
69058;BME280;56128;37.534;-122.308;2023-11-18T10:27:29;100843.00;;;12.95;100.00
69058;BME280;56128;37.534;-122.308;2023-11-18T10:30:04;100834.69;;;12.98;100.00
69058;BME280;56128;37.534;-122.308;2023-11-18T10:32:32;100831.28;;;12.96;100.00
69058;BME280;56128;37.534;-122.308;2023-11-18T10:35:01;100839.34;;;12.96;100.00
69058;BME280;56128;37.534;-122.308;2023-11-18T10:37:31;100841.88;;;12.97;100.00
69058;BME280;56128;37.534;-122.308;2023-11-18T10:39:57;100840.06;;;12.98;100.00
69058;BME280;56128;37.534;-122.308;2023-11-18T10:42:26;100835.53;;;12.98;100.00
69058;BME280;56128;37.534;-122.308;2023-11-18T10:44:57;100847.03;;;13.01;100.00
69058;BME280;56128;37.534;-122.308;2023-11-18T10:47:27;100848.97;;;12.98;100.00
69058;BME280;56128;37.534;-122.308;2023-11-18T10:49:55;100858.88;;;12.98;100.00
69058;BME280;56128;37.534;-122.308;2023-11-18T10:52:23;100862.41;;;12.98;100.00
69058;BME280;56128;37.534;-122.308;2023-11-18T10:54:53;100852.53;;;12.99;100.00
69058;BME280;56128;37.534;-122.308;2023-11-18T10:57:22;100856.19;;;12.98;100.00
69058;BME280;56128;37.534;-122.308;2023-11-18T11:00:05;100849.94;;;12.97;100.00
69058;BME280;56128;37.534;-122.308;2023-11-18T11:02:41;100844.56;;;12.97;100.00
69058;BME280;56128;37.534;-122.308;2023-11-18T11:05:10;100847.16;;;12.99;100.00
69058;BME280;56128;37.534;-122.308;2023-11-18T11:07:43;100852.53;;;12.99;100.00
69058;BME280;56128;37.534;-122.308;2023-11-18T11:10:10;100857.03;;;12.98;100.00
69058;BME280;56128;37.534;-122.308;2023-11-18T11:12:43;100862.69;;;12.95;100.00
69058;BME280;56128;37.534;-122.308;2023-11-18T11:15:30;100864.78;;;12.92;100.00
69058;BME280;56128;37.534;-122.308;2023-11-18T11:18:20;100865.75;;;12.91;100.00
69058;BME280;56128;37.534;-122.308;2023-11-18T11:21:25;100866.94;;;12.98;100.00
69058;BME280;56128;37.534;-122.308;2023-11-18T11:26:59;100855.31;;;12.97;100.00
69058;BME280;56128;37.534;-122.308;2023-11-18T11:29:57;100844.66;;;13.07;100.00
69058;BME280;56128;37.534;-122.308;2023-11-18T11:32:28;100834.31;;;13.03;100.00
69058;BME280;56128;37.534;-122.308;2023-11-18T11:35:30;100834.41;;;13.22;100.00
69058;BME280;56128;37.534;-122.308;2023-11-18T11:37:56;100826.22;;;13.45;100.00
69058;BME280;56128;37.534;-122.308;2023-11-18T11:40:38;100829.50;;;13.48;100.00
69058;BME280;56128;37.534;-122.308;2023-11-18T11:43:06;61984.91;;;-146.99;100.00
69058;BME280;56128;37.534;-122.308;2023-11-18T11:45:36;61984.91;;;-146.99;100.00
69058;BME280;56128;37.534;-122.308;2023-11-18T11:48:06;61984.91;;;-146.99;100.00
69058;BME280;56128;37.534;-122.308;2023-11-18T11:51:05;61984.91;;;-146.99;100.00
69058;BME280;56128;37.534;-122.308;2023-11-18T11:53:45;61984.91;;;-146.99;100.00
69058;BME280;56128;37.534;-122.308;2023-11-18T11:56:13;61984.91;;;-146.99;100.00
69058;BME280;56128;37.534;-122.308;2023-11-18T11:58:41;61984.91;;;-146.99;100.00
69058;BME280;56128;37.534;-122.308;2023-11-18T12:01:35;61984.91;;;-146.99;100.00
69058;BME280;56128;37.534;-122.308;2023-11-18T12:04:08;61984.91;;;-146.99;100.00
69058;BME280;56128;37.534;-122.308;2023-11-18T12:06:47;61984.91;;;-146.99;100.00
69058;BME280;56128;37.534;-122.308;2023-11-18T12:09:14;61984.91;;;-146.99;100.00
69058;BME280;56128;37.534;-122.308;2023-11-18T12:11:47;61984.91;;;-146.99;100.00
69058;BME280;56128;37.534;-122.308;2023-11-18T12:14:17;61984.91;;;-146.99;100.00
69058;BME280;56128;37.534;-122.308;2023-11-18T12:17:05;61984.91;;;-146.99;100.00
69058;BME280;56128;37.534;-122.308;2023-11-18T12:22:20;61984.91;;;-146.99;100.00
69058;BME280;56128;37.534;-122.308;2023-11-18T12:35:30;61984.91;;;-146.99;100.00
69058;BME280;56128;37.534;-122.308;2023-11-18T12:40:56;61984.91;;;-146.99;100.00
69058;BME280;56128;37.534;-122.308;2023-11-18T12:43:47;61984.91;;;-146.99;100.00
69058;BME280;56128;37.534;-122.308;2023-11-18T12:49:16;61984.91;;;-146.99;100.00
69058;BME280;56128;37.534;-122.308;2023-11-18T12:51:45;61984.91;;;-146.99;100.00
69058;BME280;56128;37.534;-122.308;2023-11-18T12:54:12;61984.91;;;-146.99;100.00
69058;BME280;56128;37.534;-122.308;2023-11-18T12:56:39;61984.91;;;-146.99;100.00
69058;BME280;56128;37.534;-122.308;2023-11-18T12:59:05;61984.91;;;-146.99;100.00
69058;BME280;56128;37.534;-122.308;2023-11-18T13:01:34;61984.91;;;-146.99;100.00
69058;BME280;56128;37.534;-122.308;2023-11-18T13:04:03;61984.91;;;-146.99;100.00